Time;durP1;ratioP1;P1;durP2;ratioP2;P2;SDS_P1;SDS_P2;PMS_P1;PMS_P2;Temp;Humidity;BMP_temperature;BMP_pressure;BME280_temperature;BME280_humidity;BME280_pressure;Samples;Min_cycle;Max_cycle;Signal;HPM_P1;HPM_P2
2022/08/19 00:02:05;;;;;;;9.37;4.07;;;21.80;98.00;;;;;;5054801;28;20465;-65
2022/08/19 00:04:36;;;;;;;7.27;4.50;;;21.80;98.00;;;;;;5072251;28;20461;-65
2022/08/19 00:07:04;;;;;;;8.27;4.47;;;21.90;98.00;;;;;;5071875;28;20506;-65
2022/08/19 00:09:36;;;;;;;8.47;4.80;;;22.00;98.00;;;;;;5072485;28;20460;-65
2022/08/19 00:12:04;;;;;;;6.57;4.20;;;22.00;98.00;;;;;;5072371;28;20526;-65
2022/08/19 00:14:32;;;;;;;6.53;4.27;;;21.90;98.00;;;;;;5072492;28;20476;-65
2022/08/19 00:16:59;;;;;;;6.17;3.60;;;21.80;98.00;;;;;;5072105;28;20461;-65
2022/08/19 00:19:26;;;;;;;8.70;5.23;;;21.80;98.00;;;;;;5072153;28;20502;-65
2022/08/19 00:21:55;;;;;;;8.30;5.00;;;21.80;98.00;;;;;;5054129;28;20464;-65
2022/08/19 00:24:22;;;;;;;7.43;4.40;;;21.80;98.00;;;;;;5071985;28;20465;-65
2022/08/19 00:26:54;;;;;;;7.10;4.13;;;21.80;98.00;;;;;;5072137;28;20953;-65
2022/08/19 00:29:23;;;;;;;7.53;4.63;;;21.80;98.00;;;;;;5071969;28;20486;-65
2022/08/19 00:31:52;;;;;;;8.00;4.70;;;21.80;98.00;;;;;;5072109;28;20457;-65
2022/08/19 00:34:20;;;;;;;8.57;4.60;;;22.00;98.00;;;;;;5072071;28;20476;-65
2022/08/19 00:36:47;;;;;;;7.53;4.53;;;22.10;98.00;;;;;;5071728;28;20453;-65
2022/08/19 00:39:16;;;;;;;7.70;4.77;;;22.10;98.00;;;;;;5054436;28;20461;-65
2022/08/19 00:41:45;;;;;;;7.00;4.20;;;22.10;98.00;;;;;;5071995;28;20540;-64
2022/08/19 00:44:19;;;;;;;9.83;5.20;;;22.30;98.00;;;;;;5072035;28;20518;-65
2022/08/19 00:46:48;;;;;;;7.30;4.33;;;22.20;98.00;;;;;;5071748;28;20475;-65
2022/08/19 00:49:19;;;;;;;6.90;3.87;;;22.10;98.00;;;;;;5071803;28;20822;-65
2022/08/19 00:51:49;;;;;;;5.27;3.50;;;22.20;98.00;;;;;;5071759;28;20962;-65
2022/08/19 00:54:17;;;;;;;5.70;3.77;;;22.20;98.00;;;;;;5071926;28;20566;-65
2022/08/19 00:56:46;;;;;;;8.20;4.43;;;22.20;98.00;;;;;;5071849;28;20530;-65
2022/08/19 00:59:16;;;;;;;9.13;4.93;;;22.10;98.00;;;;;;5072020;28;20456;-65
2022/08/19 01:01:45;;;;;;;8.47;4.63;;;21.90;98.00;;;;;;5071778;28;20449;-65
2022/08/19 01:04:12;;;;;;;7.17;4.50;;;21.90;98.00;;;;;;5071862;28;20445;-65
2022/08/19 01:06:41;;;;;;;8.70;5.00;;;21.80;98.00;;;;;;5073506;28;20459;-65
2022/08/19 01:09:09;;;;;;;7.73;4.80;;;21.70;98.00;;;;;;5076100;28;20460;-65
2022/08/19 01:11:40;;;;;;;10.00;5.00;;;21.60;98.00;;;;;;5075853;28;20455;-65
2022/08/19 01:14:09;;;;;;;8.33;4.73;;;21.50;98.00;;;;;;5058400;28;20488;-65
2022/08/19 01:16:40;;;;;;;9.50;4.40;;;21.50;98.00;;;;;;5075627;28;20457;-65
2022/08/19 01:19:14;;;;;;;7.43;4.20;;;21.50;98.00;;;;;;5075825;28;20463;-65
2022/08/19 01:21:47;;;;;;;9.00;4.93;;;21.40;98.00;;;;;;5075440;28;20468;-65
2022/08/19 01:24:16;;;;;;;5.90;3.77;;;21.30;98.00;;;;;;5058494;28;20449;-65
2022/08/19 01:26:45;;;;;;;7.40;4.70;;;21.10;98.00;;;;;;5075265;28;20804;-65
2022/08/19 01:29:14;;;;;;;7.87;4.30;;;21.10;98.00;;;;;;5075333;28;20457;-65
2022/08/19 01:31:41;;;;;;;7.80;4.30;;;21.10;98.00;;;;;;5075443;28;20455;-65
2022/08/19 01:34:10;;;;;;;5.70;3.73;;;21.10;98.00;;;;;;5057478;28;20485;-68
2022/08/19 01:36:41;;;;;;;10.57;4.73;;;21.10;98.00;;;;;;5075055;28;20567;-67
2022/08/19 01:39:13;;;;;;;9.27;4.93;;;21.10;98.00;;;;;;5075204;28;20463;-67
2022/08/19 01:41:42;;;;;;;7.37;3.90;;;21.10;98.00;;;;;;5057241;28;20465;-68
2022/08/19 01:44:10;;;;;;;6.87;4.47;;;21.10;98.00;;;;;;5075132;28;20468;-68
2022/08/19 01:46:39;;;;;;;7.87;5.00;;;21.00;98.00;;;;;;5074947;28;20469;-68
2022/08/19 01:49:07;;;;;;;9.73;5.03;;;21.00;98.00;;;;;;5074738;28;20448;-66
2022/08/19 01:51:34;;;;;;;8.57;4.43;;;20.90;98.00;;;;;;5074968;28;20464;-65
2022/08/19 01:54:02;;;;;;;7.73;4.40;;;21.00;98.00;;;;;;5074723;28;20514;-65
2022/08/19 01:56:29;;;;;;;7.77;4.70;;;21.00;98.00;;;;;;5075047;28;20927;-65
2022/08/19 01:59:02;;;;;;;8.37;4.53;;;21.00;98.00;;;;;;5074954;28;20460;-65
2022/08/19 02:01:31;;;;;;;8.27;4.30;;;21.10;98.00;;;;;;5074470;28;20452;-65
2022/08/19 02:04:00;;;;;;;19.40;5.00;;;21.10;98.00;;;;;;5074831;28;20517;-64
2022/08/19 02:06:28;;;;;;;9.50;5.63;;;21.10;98.00;;;;;;5057347;28;20468;-65
2022/08/19 02:08:56;;;;;;;9.60;4.93;;;21.10;98.00;;;;;;5074720;28;20506;-65
2022/08/19 02:11:26;;;;;;;8.50;4.77;;;21.20;98.00;;;;;;5074909;28;20790;-65
2022/08/19 02:13:56;;;;;;;8.77;4.53;;;21.20;98.00;;;;;;5074638;28;20477;-65
2022/08/19 02:16:25;;;;;;;8.20;4.60;;;21.20;98.00;;;;;;5074738;28;20539;-65
2022/08/19 02:18:52;;;;;;;9.07;5.00;;;21.20;98.00;;;;;;5073401;28;20453;-65
2022/08/19 02:21:22;;;;;;;7.10;4.40;;;21.10;98.00;;;;;;5056904;28;20513;-65
2022/08/19 02:23:49;;;;;;;6.73;4.10;;;21.00;98.00;;;;;;5074230;28;20456;-65
2022/08/19 02:26:18;;;;;;;6.90;4.10;;;21.00;98.00;;;;;;5074373;28;20478;-65
2022/08/19 02:28:45;;;;;;;8.07;4.83;;;21.00;98.00;;;;;;5074213;28;20997;-65
2022/08/19 02:31:14;;;;;;;6.90;5.00;;;21.00;98.00;;;;;;5074027;28;20453;-65
2022/08/19 02:33:43;;;;;;;6.47;4.07;;;21.00;98.00;;;;;;5074069;28;20487;-65
2022/08/19 02:36:13;;;;;;;7.90;4.80;;;21.00;98.00;;;;;;5074169;28;20531;-64
2022/08/19 02:38:41;;;;;;;7.47;4.40;;;20.80;98.00;;;;;;5074109;28;20799;-65
2022/08/19 02:41:12;;;;;;;9.23;4.77;;;20.80;98.00;;;;;;5073926;28;20456;-65
2022/08/19 02:43:40;;;;;;;6.97;3.97;;;20.70;98.00;;;;;;5074035;28;20453;-65
2022/08/19 02:46:20;;;;;;;7.30;4.10;;;20.70;98.00;;;;;;5073807;28;20885;-65
2022/08/19 02:48:50;;;;;;;6.70;3.90;;;20.70;98.00;;;;;;5073974;28;20452;-65
2022/08/19 02:51:19;;;;;;;7.00;4.60;;;20.70;98.00;;;;;;5074082;28;20799;-65
2022/08/19 02:53:46;;;;;;;9.30;4.70;;;20.90;98.00;;;;;;5073871;28;20909;-65
2022/08/19 02:56:13;;;;;;;8.33;4.40;;;21.00;98.00;;;;;;5073770;28;20460;-64
2022/08/19 02:58:48;;;;;;;8.90;4.90;;;21.10;98.00;;;;;;5073939;28;20449;-65
2022/08/19 03:01:23;;;;;;;6.90;4.27;;;21.10;98.00;;;;;;5073803;28;20453;-65
2022/08/19 03:03:52;;;;;;;10.80;5.70;;;21.10;98.00;;;;;;5073847;28;20452;-65
2022/08/19 03:06:21;;;;;;;7.63;4.00;;;20.90;98.00;;;;;;5073792;28;20945;-65
2022/08/19 03:08:49;;;;;;;6.47;4.10;;;20.80;98.00;;;;;;5073644;28;20453;-65
2022/08/19 03:11:19;;;;;;;7.37;4.37;;;20.70;98.00;;;;;;5073745;28;20457;-64
2022/08/19 03:13:50;;;;;;;6.40;4.20;;;20.60;98.00;;;;;;5073518;28;21002;-65
2022/08/19 03:16:17;;;;;;;7.20;4.10;;;20.60;98.00;;;;;;5073575;28;20453;-65
2022/08/19 03:18:45;;;;;;;9.33;4.77;;;20.70;98.00;;;;;;5072820;28;20480;-65
2022/08/19 03:21:18;;;;;;;8.63;4.67;;;20.70;98.00;;;;;;5073124;28;20814;-65
2022/08/19 03:23:45;;;;;;;7.20;4.00;;;20.60;98.00;;;;;;5073116;28;20458;-65
2022/08/19 03:26:14;;;;;;;9.30;4.90;;;20.70;98.00;;;;;;5055154;28;20536;-65
2022/08/19 03:28:42;;;;;;;6.60;3.70;;;20.50;98.00;;;;;;5072961;28;20461;-65
2022/08/19 03:31:13;;;;;;;6.27;4.20;;;20.40;98.00;;;;;;5072915;28;20476;-65
2022/08/19 03:33:42;;;;;;;9.33;4.73;;;20.40;98.00;;;;;;5072953;28;20492;-65
2022/08/19 03:36:12;;;;;;;6.40;4.10;;;20.40;98.00;;;;;;5055033;28;20464;-65
2022/08/19 03:38:42;;;;;;;6.80;3.80;;;20.40;98.00;;;;;;5072963;28;20453;-65
2022/08/19 03:41:13;;;;;;;5.23;3.27;;;20.40;98.00;;;;;;5072819;28;20455;-65
2022/08/19 03:43:42;;;;;;;8.53;4.63;;;20.50;98.00;;;;;;5055446;28;20445;-65
2022/08/19 03:46:12;;;;;;;9.50;4.90;;;20.60;98.00;;;;;;5072520;28;20464;-65
2022/08/19 03:48:41;;;;;;;9.10;4.97;;;20.60;98.00;;;;;;5054974;28;20460;-64
2022/08/19 03:51:16;;;;;;;6.80;4.47;;;20.60;98.00;;;;;;5072660;28;20456;-65
2022/08/19 03:53:44;;;;;;;11.30;4.97;;;20.50;98.00;;;;;;5072714;28;20487;-64
2022/08/19 03:56:12;;;;;;;10.67;5.30;;;20.40;98.00;;;;;;5072636;28;20460;-65
2022/08/19 03:58:40;;;;;;;9.67;4.50;;;20.30;98.00;;;;;;5055115;28;20525;-65
2022/08/19 04:01:09;;;;;;;8.83;4.90;;;20.40;98.00;;;;;;5072608;28;20453;-64
2022/08/19 04:03:37;;;;;;;8.37;4.60;;;20.40;98.00;;;;;;5072777;28;20449;-65
2022/08/19 04:06:12;;;;;;;6.30;4.23;;;20.40;98.00;;;;;;5072156;28;20461;-64
2022/08/19 04:08:40;;;;;;;8.90;5.20;;;20.30;98.00;;;;;;5072594;28;20451;-64
2022/08/19 04:11:10;;;;;;;6.40;4.17;;;20.30;98.00;;;;;;5054940;28;20934;-64
2022/08/19 04:13:38;;;;;;;9.90;4.63;;;20.30;98.00;;;;;;5072308;28;20484;-65
2022/08/19 04:16:09;;;;;;;8.13;4.60;;;20.30;98.00;;;;;;5054508;28;20460;-65
2022/08/19 04:18:37;;;;;;;7.40;4.10;;;20.30;98.00;;;;;;5072147;28;20456;-65
2022/08/19 04:21:05;;;;;;;11.10;5.07;;;20.20;98.00;;;;;;5072305;28;20457;-65
2022/08/19 04:23:33;;;;;;;9.67;4.47;;;20.20;98.00;;;;;;5072045;28;20467;-65
2022/08/19 04:26:00;;;;;;;9.00;4.73;;;20.20;98.00;;;;;;5071869;28;20453;-65
2022/08/19 04:28:29;;;;;;;7.40;4.47;;;20.20;98.00;;;;;;5072217;28;20457;-65
2022/08/19 04:30:57;;;;;;;9.30;4.53;;;20.40;98.00;;;;;;5071784;28;20852;-64
2022/08/19 04:33:25;;;;;;;7.47;4.33;;;20.50;98.00;;;;;;5071951;28;20474;-65
2022/08/19 04:35:54;;;;;;;8.23;4.87;;;20.40;98.00;;;;;;5071771;28;20456;-65
2022/08/19 04:38:23;;;;;;;6.53;4.03;;;20.30;98.00;;;;;;5054241;28;20453;-65
2022/08/19 04:43:39;;;;;;;9.27;4.80;;;20.30;98.00;;;;;;5072067;28;20557;-65
2022/08/19 04:46:07;;;;;;;6.87;3.97;;;20.30;98.00;;;;;;5071576;28;20478;-65
2022/08/19 04:48:35;;;;;;;10.13;4.23;;;20.30;98.00;;;;;;5071969;28;20449;-65
2022/08/19 04:51:06;;;;;;;8.80;4.70;;;20.30;98.00;;;;;;5071735;28;20476;-65
2022/08/19 04:53:36;;;;;;;6.17;3.50;;;20.40;98.00;;;;;;5071905;28;20456;-65
2022/08/19 04:56:08;;;;;;;7.23;4.30;;;20.40;98.00;;;;;;5071786;28;20449;-65
2022/08/19 04:58:40;;;;;;;11.47;5.40;;;20.50;98.00;;;;;;5071871;28;20579;-65
2022/08/19 05:01:09;;;;;;;11.07;4.50;;;20.70;98.00;;;;;;5071113;28;20449;-65
2022/08/19 05:03:38;;;;;;;7.67;4.40;;;20.60;98.00;;;;;;5038039;28;20905;-65
2022/08/19 05:06:07;;;;;;;6.53;4.20;;;20.60;98.00;;;;;;5071447;28;20483;-64
2022/08/19 05:08:35;;;;;;;7.20;4.30;;;20.50;98.00;;;;;;5071886;28;20461;-65
2022/08/19 05:11:11;;;;;;;10.33;5.43;;;20.60;98.00;;;;;;5071842;28;20460;-65
2022/08/19 05:13:40;;;;;;;7.60;4.40;;;20.70;98.00;;;;;;5071786;28;20464;-65
2022/08/19 05:16:07;;;;;;;9.73;4.87;;;20.70;98.00;;;;;;5071680;28;21024;-64
2022/08/19 05:24:10;;;;;;;7.50;4.70;;;20.80;98.00;;;;;;5091144;28;20447;-63
2022/08/19 05:26:38;;;;;;;8.67;4.73;;;21.00;98.00;;;;;;5091072;28;20456;-62
2022/08/19 05:29:08;;;;;;;7.57;4.50;;;21.00;98.00;;;;;;5090830;28;20459;-63
2022/08/19 05:31:35;;;;;;;9.60;4.83;;;21.20;98.00;;;;;;5090981;28;20463;-63
2022/08/19 05:34:03;;;;;;;12.10;5.47;;;21.40;98.00;;;;;;5090765;28;20515;-63
2022/08/19 05:36:38;;;;;;;8.43;5.17;;;21.40;98.00;;;;;;5090872;28;20452;-62
2022/08/19 05:39:06;;;;;;;10.10;4.80;;;21.40;98.00;;;;;;5090785;28;20459;-63
2022/08/19 05:41:33;;;;;;;9.80;5.07;;;21.50;98.00;;;;;;5090828;28;20456;-63
2022/08/19 05:44:06;;;;;;;12.43;5.40;;;21.70;98.00;;;;;;5072942;28;20452;-62
2022/08/19 05:46:35;;;;;;;6.23;3.73;;;21.80;98.00;;;;;;5090787;28;20555;-62
2022/08/19 05:49:02;;;;;;;11.40;5.47;;;21.90;98.00;;;;;;5090730;28;20462;-63
2022/08/19 05:51:29;;;;;;;9.43;4.67;;;22.10;98.00;;;;;;5072820;28;20462;-63
2022/08/19 05:53:57;;;;;;;10.40;5.40;;;22.20;98.00;;;;;;5092606;28;20479;-63
2022/08/19 05:56:25;;;;;;;9.93;5.33;;;22.30;98.00;;;;;;5094155;28;20459;-63
2022/08/19 05:58:52;;;;;;;7.40;4.90;;;22.50;98.00;;;;;;5076267;28;20470;-62
2022/08/19 06:01:20;;;;;;;10.80;5.17;;;22.60;98.00;;;;;;5093966;28;20451;-62
2022/08/19 06:03:49;;;;;;;11.93;5.37;;;22.80;98.00;;;;;;5093947;28;20452;-62
2022/08/19 06:06:17;;;;;;;8.70;5.37;;;22.90;98.00;;;;;;5094076;28;20459;-62
2022/08/19 06:08:45;;;;;;;8.57;4.93;;;23.00;98.00;;;;;;5094192;28;20451;-62
2022/08/19 06:11:18;;;;;;;8.10;4.87;;;22.90;98.00;;;;;;5076057;28;20548;-62
2022/08/19 06:13:47;;;;;;;10.23;5.00;;;22.90;98.00;;;;;;5094068;28;20451;-62
2022/08/19 06:16:22;;;;;;;10.90;5.97;;;22.90;98.00;;;;;;5076414;28;20806;-63
2022/08/19 06:18:52;;;;;;;10.60;6.00;;;23.00;98.00;;;;;;5094137;28;20471;-62
2022/08/19 06:21:20;;;;;;;8.80;5.03;;;22.80;98.00;;;;;;5093050;28;20887;-63
2022/08/19 06:23:48;;;;;;;8.97;4.80;;;22.70;98.00;;;;;;5091153;28;20456;-62
2022/08/19 06:26:16;;;;;;;9.30;4.70;;;22.60;98.00;;;;;;5093705;28;20489;-62
2022/08/19 06:28:46;;;;;;;14.37;5.53;;;22.80;98.00;;;;;;5093398;28;20448;-62
2022/08/19 06:31:15;;;;;;;10.00;4.93;;;23.00;98.00;;;;;;5093276;28;20456;-62
2022/08/19 06:33:43;;;;;;;8.83;4.90;;;23.10;98.00;;;;;;5093712;28;20464;-62
2022/08/19 06:36:20;;;;;;;10.70;5.70;;;23.10;98.00;;;;;;5093414;28;20491;-63
2022/08/19 06:38:47;;;;;;;13.30;5.60;;;22.90;98.00;;;;;;5092959;28;20467;-62
2022/08/19 06:41:14;;;;;;;9.80;5.37;;;22.70;98.00;;;;;;5093485;28;20949;-63
2022/08/19 19:21:45;;;;;;;10.10;4.43;;;20.20;98.00;;;;;;514688;26;20812;-86
2022/08/19 19:24:48;;;;;;;6.30;3.97;;;20.10;98.00;;;;;;4935799;29;21032;-90
2022/08/19 19:27:19;;;;;;;6.80;4.40;;;19.90;98.00;;;;;;4937215;29;20489;-89
2022/08/19 19:29:47;;;;;;;8.57;4.57;;;19.90;98.00;;;;;;4936980;29;20538;-90
